createdAt,value
2023-05-03T00:00:09.296Z,6.60
2023-05-03T00:02:40.054Z,6.60
2023-05-03T00:05:17.702Z,6.60
2023-05-03T00:07:46.650Z,6.50
2023-05-03T00:10:16.341Z,6.50
2023-05-03T00:12:44.391Z,6.50
2023-05-03T00:15:11.832Z,6.50
2023-05-03T00:17:39.100Z,6.50
2023-05-03T00:20:08.100Z,6.50
2023-05-03T00:22:35.693Z,6.50
2023-05-03T00:25:03.000Z,6.50
2023-05-03T00:27:30.570Z,6.50
2023-05-03T00:29:57.863Z,6.50
2023-05-03T00:32:26.104Z,6.40
2023-05-03T00:34:55.300Z,6.40
2023-05-03T00:37:24.260Z,6.40
2023-05-03T00:39:52.419Z,6.40
2023-05-03T00:42:19.847Z,6.30
2023-05-03T00:44:47.020Z,6.30
2023-05-03T00:47:16.166Z,6.30
2023-05-03T00:49:44.569Z,6.30
2023-05-03T00:52:12.076Z,6.30
2023-05-03T00:54:39.691Z,6.20
2023-05-03T00:57:07.450Z,6.20
2023-05-03T00:59:34.721Z,6.20
2023-05-03T01:02:02.084Z,6.20
2023-05-03T01:04:30.423Z,6.20
2023-05-03T01:07:54.084Z,6.20
2023-05-03T01:10:59.995Z,6.20
2023-05-03T01:13:58.690Z,6.20
2023-05-03T01:16:40.238Z,6.20
2023-05-03T01:19:23.376Z,6.20
2023-05-03T01:22:04.642Z,6.20
2023-05-03T01:24:33.741Z,6.20
2023-05-03T01:27:01.075Z,6.30
2023-05-03T01:29:28.214Z,6.20
2023-05-03T01:32:04.185Z,6.30
2023-05-03T01:35:20.301Z,6.20
2023-05-03T01:37:48.381Z,6.20
2023-05-03T01:40:19.780Z,6.20
2023-05-03T01:42:48.165Z,6.20
2023-05-03T01:45:16.194Z,6.30
2023-05-03T01:47:43.393Z,6.30
2023-05-03T01:50:11.129Z,6.30
2023-05-03T01:52:38.299Z,6.30
2023-05-03T01:55:06.613Z,6.30
2023-05-03T01:57:33.853Z,6.30
2023-05-03T02:00:01.345Z,6.30
2023-05-03T02:02:28.988Z,6.20
2023-05-03T02:04:56.337Z,6.20
2023-05-03T02:07:23.555Z,6.20
2023-05-03T02:09:51.043Z,6.30
2023-05-03T02:12:18.427Z,6.30
2023-05-03T02:14:45.604Z,6.30
2023-05-03T02:17:12.876Z,6.30
2023-05-03T02:19:40.008Z,6.20
2023-05-03T02:22:07.341Z,5.20
2023-05-03T02:24:36.174Z,6.20
2023-05-03T02:27:04.759Z,6.30
2023-05-03T02:29:31.876Z,6.20
2023-05-03T02:32:01.164Z,6.20
2023-05-03T02:34:28.473Z,6.30
2023-05-03T02:36:55.694Z,6.20
2023-05-03T02:39:23.206Z,6.20
2023-05-03T02:41:51.019Z,6.20
2023-05-03T02:44:18.194Z,6.30
2023-05-03T02:46:45.533Z,6.20
2023-05-03T02:49:15.155Z,6.30
2023-05-03T02:51:42.281Z,6.20
2023-05-03T02:54:09.425Z,6.20
2023-05-03T02:56:36.738Z,6.30
2023-05-03T02:59:04.147Z,6.20
2023-05-03T03:01:33.979Z,6.20
2023-05-03T03:04:01.611Z,6.10
2023-05-03T03:06:31.491Z,6.10
2023-05-03T03:08:59.516Z,6.10
2023-05-03T03:11:26.978Z,6.10
2023-05-03T03:13:54.108Z,6.10
2023-05-03T03:16:21.968Z,6.10
2023-05-03T03:18:49.114Z,6.10
2023-05-03T03:21:16.508Z,6.10
2023-05-03T03:23:44.119Z,6.10
2023-05-03T03:26:11.401Z,6.10
2023-05-03T03:28:38.495Z,6.10
2023-05-03T03:31:10.340Z,6.10
2023-05-03T03:33:38.859Z,6.10
2023-05-03T03:36:11.885Z,6.10
2023-05-03T03:38:42.535Z,6.20
2023-05-03T03:41:11.638Z,6.10
2023-05-03T03:43:38.986Z,6.10
2023-05-03T03:46:10.750Z,6.20
2023-05-03T03:48:39.169Z,6.20
2023-05-03T03:51:06.800Z,7.40
2023-05-03T03:53:40.176Z,6.20
2023-05-03T03:56:08.505Z,6.20
2023-05-03T03:58:36.041Z,6.20
2023-05-03T04:01:06.439Z,6.20
2023-05-03T04:03:33.618Z,6.20
2023-05-03T04:06:00.903Z,6.30
2023-05-03T04:08:29.303Z,6.30
2023-05-03T04:10:56.641Z,6.30
2023-05-03T04:13:24.601Z,6.30
2023-05-03T04:15:57.012Z,6.40
2023-05-03T04:18:25.571Z,6.40
2023-05-03T04:20:54.760Z,6.50
2023-05-03T04:23:22.307Z,6.60
2023-05-03T04:25:49.995Z,6.80
2023-05-03T04:28:20.418Z,6.80
2023-05-03T04:30:49.566Z,6.90
2023-05-03T04:33:22.293Z,7.10
2023-05-03T04:35:51.992Z,7.20
2023-05-03T04:38:22.250Z,7.40
2023-05-03T04:40:50.096Z,7.50
2023-05-03T04:43:18.459Z,7.70
2023-05-03T04:45:47.422Z,7.80
2023-05-03T04:48:19.241Z,8.00
2023-05-03T04:50:47.325Z,8.30
2023-05-03T04:53:17.763Z,8.40
2023-05-03T04:55:51.107Z,8.40
2023-05-03T04:58:18.988Z,8.60
2023-05-03T05:00:46.840Z,8.90
2023-05-03T05:03:21.670Z,9.10
2023-05-03T05:05:49.708Z,9.30
2023-05-03T05:08:17.639Z,9.50
2023-05-03T05:10:51.286Z,9.70
2023-05-03T05:13:22.793Z,10.20
2023-05-03T05:15:50.059Z,9.80
2023-05-03T05:18:18.156Z,10.00
2023-05-03T05:20:46.624Z,10.10
2023-05-03T05:23:13.813Z,10.30
2023-05-03T05:25:43.710Z,10.50
2023-05-03T05:28:11.308Z,10.70
2023-05-03T05:30:39.796Z,10.80
2023-05-03T05:33:07.983Z,10.90
2023-05-03T05:35:35.463Z,11.10
2023-05-03T05:38:02.752Z,11.10
2023-05-03T05:40:30.931Z,11.30
2023-05-03T05:43:00.246Z,11.50
2023-05-03T05:45:29.228Z,11.70
2023-05-03T05:47:57.821Z,11.90
2023-05-03T05:50:25.133Z,12.10
2023-05-03T05:52:57.533Z,12.10
2023-05-03T05:55:28.580Z,12.00
2023-05-03T05:57:57.320Z,12.20
2023-05-03T06:00:30.741Z,12.50
2023-05-03T06:02:58.149Z,12.70
2023-05-03T06:05:25.672Z,12.80
2023-05-03T06:07:54.386Z,12.90
2023-05-03T06:10:21.837Z,13.00
2023-05-03T06:12:53.126Z,12.50
2023-05-03T06:15:26.392Z,12.20
2023-05-03T06:17:54.353Z,12.40
2023-05-03T06:20:24.279Z,12.80
2023-05-03T06:22:52.859Z,13.00
2023-05-03T06:25:21.340Z,13.20
2023-05-03T06:27:50.754Z,13.00
2023-05-03T06:30:21.221Z,13.20
2023-05-03T06:32:50.497Z,13.40
2023-05-03T06:35:19.534Z,13.50
2023-05-03T06:37:47.404Z,13.80
2023-05-03T06:40:15.764Z,13.70
2023-05-03T06:42:43.322Z,13.60
2023-05-03T06:45:20.434Z,13.70
2023-05-03T06:47:47.792Z,13.50
2023-05-03T06:50:15.764Z,13.30
2023-05-03T06:52:43.366Z,13.30
2023-05-03T06:55:11.302Z,13.70
2023-05-03T06:57:41.353Z,13.90
2023-05-03T07:00:10.233Z,14.20
2023-05-03T07:02:37.894Z,14.30
2023-05-03T07:05:06.373Z,14.30
2023-05-03T07:07:34.463Z,14.50
2023-05-03T07:10:02.384Z,14.60
2023-05-03T07:12:30.090Z,14.70
2023-05-03T07:14:58.452Z,14.50
2023-05-03T07:17:26.473Z,14.60
2023-05-03T07:19:54.451Z,14.40
2023-05-03T07:22:24.849Z,14.40
2023-05-03T07:24:54.755Z,14.70
2023-05-03T07:27:23.026Z,15.10
2023-05-03T07:29:50.785Z,14.90
2023-05-03T07:32:18.481Z,15.30
2023-05-03T07:34:46.242Z,15.10
2023-05-03T07:37:13.826Z,15.10
2023-05-03T07:39:42.051Z,15.40
2023-05-03T07:42:10.253Z,15.70
2023-05-03T07:44:37.858Z,15.50
2023-05-03T07:47:05.701Z,15.00
2023-05-03T07:49:35.903Z,14.50
2023-05-03T07:52:03.676Z,14.30
2023-05-03T07:54:31.294Z,14.50
2023-05-03T07:56:58.684Z,14.70
2023-05-03T07:59:26.362Z,14.80
2023-05-03T08:01:53.849Z,15.30
2023-05-03T08:04:21.611Z,15.60
2023-05-03T08:06:49.772Z,15.60
2023-05-03T08:09:17.850Z,15.10
2023-05-03T08:11:45.361Z,14.00
2023-05-03T08:14:13.157Z,13.90
2023-05-03T08:16:40.729Z,14.10
2023-05-03T08:19:08.461Z,14.40
2023-05-03T08:21:35.927Z,14.80
2023-05-03T08:24:06.109Z,15.40
2023-05-03T08:26:34.263Z,15.80
2023-05-03T08:29:03.619Z,16.20
2023-05-03T08:31:31.419Z,16.20
2023-05-03T08:33:59.117Z,16.10
2023-05-03T08:36:26.721Z,16.30
2023-05-03T08:38:54.121Z,16.50
2023-05-03T08:41:31.058Z,16.60
2023-05-03T08:44:01.107Z,16.40
2023-05-03T08:46:29.246Z,16.30
2023-05-03T08:48:57.634Z,16.50
2023-05-03T08:51:25.577Z,16.40
2023-05-03T08:53:53.103Z,16.50
2023-05-03T08:56:34.459Z,16.10
2023-05-03T08:59:08.051Z,15.40
2023-05-03T09:01:41.627Z,15.70
2023-05-03T09:04:12.115Z,16.20
2023-05-03T09:06:40.734Z,16.50
2023-05-03T09:09:09.710Z,16.90
2023-05-03T09:11:39.396Z,16.80
2023-05-03T09:14:15.216Z,16.30
2023-05-03T09:16:47.466Z,16.60
2023-05-03T09:19:16.486Z,16.60
2023-05-03T09:21:49.125Z,17.10
2023-05-03T09:24:18.725Z,17.20
2023-05-03T09:26:52.006Z,17.00
2023-05-03T09:29:36.232Z,16.50
2023-05-03T09:32:06.201Z,16.40
2023-05-03T09:34:40.798Z,16.70
2023-05-03T09:37:09.123Z,15.50
2023-05-03T09:39:39.821Z,15.60
2023-05-03T09:42:17.320Z,15.70
2023-05-03T09:44:54.383Z,15.70
2023-05-03T09:47:22.631Z,15.30
2023-05-03T09:49:50.767Z,15.40
2023-05-03T09:52:20.118Z,15.60
2023-05-03T09:54:50.081Z,16.30
2023-05-03T09:57:18.451Z,16.70
2023-05-03T09:59:47.091Z,16.60
2023-05-03T10:02:16.484Z,17.00
2023-05-03T10:04:53.322Z,17.30
2023-05-03T10:07:26.334Z,17.50
2023-05-03T10:09:56.856Z,18.20
2023-05-03T10:12:25.661Z,18.60
2023-05-03T10:14:55.107Z,18.60
2023-05-03T10:17:46.204Z,19.00
2023-05-03T10:20:33.987Z,18.70
2023-05-03T10:23:09.995Z,17.70
2023-05-03T10:25:40.200Z,17.40
2023-05-03T10:28:09.950Z,17.00
2023-05-03T10:30:39.883Z,17.50
2023-05-03T10:33:10.180Z,18.10
2023-05-03T10:35:42.036Z,18.90
2023-05-03T10:38:28.703Z,19.00
2023-05-03T10:40:57.148Z,19.50
2023-05-03T10:43:31.185Z,20.10
2023-05-03T10:46:03.981Z,20.70
2023-05-03T10:48:33.476Z,21.30
2023-05-03T10:51:43.231Z,21.30
2023-05-03T10:54:12.348Z,19.80
2023-05-03T10:56:56.132Z,18.30
2023-05-03T10:59:24.382Z,17.10
2023-05-03T11:01:53.751Z,16.10
2023-05-03T11:04:37.316Z,16.30
2023-05-03T11:07:05.801Z,17.80
2023-05-03T11:09:34.712Z,18.60
2023-05-03T11:12:08.907Z,18.50
2023-05-03T11:14:36.813Z,20.20
2023-05-03T11:17:04.439Z,20.90
2023-05-03T11:19:32.664Z,20.40
2023-05-03T11:22:01.848Z,20.90
2023-05-03T11:24:29.627Z,20.20
2023-05-03T11:26:57.295Z,20.90
2023-05-03T11:29:26.214Z,20.70
2023-05-03T11:31:53.665Z,20.00
2023-05-03T11:34:22.303Z,19.40
2023-05-03T11:36:49.626Z,19.80
2023-05-03T11:39:18.859Z,19.50
2023-05-03T11:42:03.367Z,19.20
2023-05-03T11:44:31.008Z,19.30
2023-05-03T11:46:58.937Z,20.80
2023-05-03T11:49:26.453Z,20.80
2023-05-03T11:51:55.176Z,21.80
2023-05-03T11:54:27.027Z,22.40
2023-05-03T11:57:00.037Z,22.00
2023-05-03T11:59:41.168Z,22.60
2023-05-03T12:02:12.857Z,22.60
2023-05-03T12:04:43.446Z,23.70
2023-05-03T12:07:15.360Z,24.10
2023-05-03T12:09:54.748Z,23.30
2023-05-03T12:12:36.218Z,22.40
2023-05-03T12:15:08.119Z,22.30
2023-05-03T12:17:38.662Z,21.00
2023-05-03T12:23:11.364Z,21.20
2023-05-03T12:25:40.556Z,22.60
2023-05-03T12:30:44.543Z,24.40
2023-05-03T12:33:15.497Z,25.20
2023-05-03T12:35:46.810Z,24.50
2023-05-03T12:38:17.390Z,24.10
2023-05-03T12:40:47.714Z,23.90
2023-05-03T12:43:16.164Z,24.50
2023-05-03T12:45:48.535Z,24.90
2023-05-03T12:48:20.138Z,24.50
2023-05-03T12:50:51.491Z,24.20
2023-05-03T12:53:19.502Z,23.90
2023-05-03T12:55:51.407Z,24.10
2023-05-03T13:01:37.239Z,26.00
2023-05-03T13:03:43.647Z,26.10
2023-05-03T13:06:14.854Z,26.90
2023-05-03T13:11:13.647Z,27.50
2023-05-03T13:13:42.423Z,28.00
2023-05-03T13:16:10.287Z,27.50
2023-05-03T13:18:38.881Z,27.70
2023-05-03T13:21:08.150Z,28.10
2023-05-03T13:23:35.650Z,27.40
2023-05-03T13:26:03.122Z,26.80
2023-05-03T13:28:30.635Z,26.70
2023-05-03T13:30:58.103Z,26.20
2023-05-03T13:33:25.752Z,25.80
2023-05-03T13:35:53.415Z,26.00
2023-05-03T13:38:21.111Z,26.80
2023-05-03T13:40:48.672Z,26.90
2023-05-03T13:43:16.147Z,25.90
2023-05-03T13:45:43.671Z,26.00
2023-05-03T13:48:18.818Z,26.20
2023-05-03T13:50:47.109Z,25.50
2023-05-03T13:53:15.032Z,23.70
2023-05-03T13:55:42.729Z,20.80
2023-05-03T13:58:10.176Z,18.30
2023-05-03T14:00:37.808Z,16.70
2023-05-03T14:03:07.318Z,16.20
2023-05-03T14:05:35.763Z,15.80
2023-05-03T14:08:03.530Z,15.50
2023-05-03T14:10:34.714Z,15.20
2023-05-03T14:13:03.012Z,14.60
2023-05-03T14:15:31.421Z,14.50
2023-05-03T14:18:01.363Z,14.30
2023-05-03T14:20:30.778Z,14.00
2023-05-03T14:22:58.195Z,14.00
2023-05-03T14:25:28.014Z,13.90
2023-05-03T14:27:56.148Z,13.90
2023-05-03T14:30:23.880Z,13.80
2023-05-03T14:32:52.636Z,13.90
2023-05-03T14:35:20.469Z,13.90
2023-05-03T14:37:47.814Z,13.90
2023-05-03T14:40:17.343Z,14.00
2023-05-03T14:42:44.763Z,14.00
2023-05-03T14:45:15.044Z,14.10
2023-05-03T14:47:42.959Z,14.00
2023-05-03T14:50:11.171Z,13.90
2023-05-03T14:52:38.924Z,13.80
2023-05-03T14:55:08.146Z,14.40
2023-05-03T14:57:36.573Z,13.60
2023-05-03T15:00:07.879Z,13.70
2023-05-03T15:02:35.866Z,13.10
2023-05-03T15:05:04.828Z,12.70
2023-05-03T15:07:32.709Z,12.50
2023-05-03T15:10:29.242Z,12.60
2023-05-03T15:13:06.342Z,12.60
2023-05-03T15:15:34.703Z,12.70
2023-05-03T15:18:02.895Z,12.80
2023-05-03T15:20:30.448Z,12.90
2023-05-03T15:22:58.489Z,13.10
2023-05-03T15:25:27.216Z,13.20
2023-05-03T15:27:55.257Z,13.20
2023-05-03T15:30:23.344Z,13.40
2023-05-03T15:32:51.842Z,13.20
2023-05-03T15:35:20.510Z,13.10
2023-05-03T15:37:48.375Z,12.30
2023-05-03T15:40:16.697Z,12.90
2023-05-03T15:42:44.405Z,12.70
2023-05-03T15:45:13.290Z,12.60
2023-05-03T15:47:41.911Z,12.60
2023-05-03T15:50:10.029Z,12.60
2023-05-03T15:52:37.610Z,12.40
2023-05-03T15:55:06.853Z,12.30
2023-05-03T15:57:34.629Z,12.30
2023-05-03T16:00:02.728Z,12.30
2023-05-03T16:02:35.077Z,12.20
2023-05-03T16:05:02.872Z,12.10
2023-05-03T16:07:31.146Z,12.00
2023-05-03T16:09:58.617Z,12.10
2023-05-03T16:12:27.366Z,12.10
2023-05-03T16:14:55.635Z,12.10
2023-05-03T16:17:23.256Z,12.20
2023-05-03T16:19:50.749Z,12.10
2023-05-03T16:22:18.336Z,11.80
2023-05-03T16:24:46.973Z,11.80
2023-05-03T16:27:14.568Z,11.90
2023-05-03T16:29:41.993Z,12.00
2023-05-03T16:32:11.037Z,12.10
2023-05-03T16:34:38.839Z,12.10
2023-05-03T16:37:06.403Z,12.10
2023-05-03T16:39:33.900Z,12.30
2023-05-03T16:42:02.739Z,12.40
2023-05-03T16:44:30.191Z,12.50
2023-05-03T16:46:57.613Z,12.20
2023-05-03T16:49:25.004Z,12.10
2023-05-03T16:51:52.470Z,12.10
2023-05-03T16:54:19.883Z,12.10
2023-05-03T16:56:47.394Z,11.90
2023-05-03T16:59:14.906Z,11.80
2023-05-03T17:01:42.401Z,11.80
2023-05-03T17:04:10.045Z,11.80
2023-05-03T17:06:37.679Z,11.80
2023-05-03T17:09:05.396Z,11.80
2023-05-03T17:11:33.400Z,11.70
2023-05-03T17:14:01.093Z,11.70
2023-05-03T17:16:28.753Z,11.70
2023-05-03T17:18:56.480Z,11.80
2023-05-03T17:21:25.046Z,11.80
2023-05-03T17:23:52.551Z,11.90
2023-05-03T17:26:21.393Z,11.90
2023-05-03T17:28:48.830Z,11.90
2023-05-03T17:31:16.277Z,11.90
2023-05-03T17:33:43.997Z,11.80
2023-05-03T17:36:11.433Z,11.80
2023-05-03T17:38:39.099Z,11.70
2023-05-03T17:41:08.659Z,11.70
2023-05-03T17:43:37.371Z,11.70
2023-05-03T17:46:11.368Z,11.70
2023-05-03T17:48:49.259Z,11.70
2023-05-03T17:51:16.792Z,11.70
2023-05-03T17:53:44.193Z,11.70
2023-05-03T17:56:16.546Z,11.70
2023-05-03T17:58:44.926Z,11.60
2023-05-03T18:01:13.681Z,11.50
2023-05-03T18:03:44.402Z,11.50
2023-05-03T18:06:14.190Z,11.40
2023-05-03T18:08:42.947Z,11.30
2023-05-03T18:11:10.521Z,11.20
2023-05-03T18:13:38.053Z,11.20
2023-05-03T18:16:09.049Z,11.10
2023-05-03T18:18:36.680Z,11.10
2023-05-03T18:21:05.579Z,11.10
2023-05-03T18:23:33.916Z,11.10
2023-05-03T18:26:01.388Z,11.10
2023-05-03T18:28:29.003Z,11.00
2023-05-03T18:30:56.468Z,11.00
2023-05-03T18:33:24.220Z,11.00
2023-05-03T18:35:53.775Z,11.00
2023-05-03T18:38:21.833Z,11.00
2023-05-03T18:40:50.277Z,10.90
2023-05-03T18:43:18.334Z,10.90
2023-05-03T18:45:46.369Z,10.80
2023-05-03T18:48:14.405Z,10.80
2023-05-03T18:50:44.217Z,10.70
2023-05-03T18:53:12.339Z,10.70
2023-05-03T18:55:40.406Z,10.60
2023-05-03T18:58:08.045Z,10.60
2023-05-03T19:00:35.908Z,10.50
2023-05-03T19:03:08.441Z,10.50
2023-05-03T19:05:36.220Z,10.20
2023-05-03T19:08:03.956Z,10.00
2023-05-03T19:10:31.657Z,10.00
2023-05-03T19:12:59.396Z,9.90
2023-05-03T19:15:27.243Z,9.70
2023-05-03T19:17:56.935Z,9.70
2023-05-03T19:20:27.156Z,9.50
2023-05-03T19:22:54.858Z,9.30
2023-05-03T19:25:22.495Z,9.10
2023-05-03T19:27:51.006Z,8.90
2023-05-03T19:30:19.350Z,8.80
2023-05-03T19:32:46.835Z,8.70
2023-05-03T19:35:14.844Z,8.70
2023-05-03T19:37:43.705Z,8.70
2023-05-03T19:40:12.390Z,8.60
2023-05-03T19:42:39.829Z,8.50
2023-05-03T19:45:08.032Z,8.40
2023-05-03T19:47:35.836Z,8.30
2023-05-03T19:50:03.635Z,8.20
2023-05-03T19:52:31.740Z,8.20
2023-05-03T19:54:59.168Z,8.20
2023-05-03T19:57:26.805Z,8.10
2023-05-03T19:59:54.523Z,8.10
2023-05-03T20:02:24.214Z,8.00
2023-05-03T20:04:52.522Z,8.00
2023-05-03T20:07:20.033Z,8.00
2023-05-03T20:09:48.322Z,8.00
2023-05-03T20:12:16.363Z,7.90
2023-05-03T20:14:44.010Z,7.90
2023-05-03T20:17:11.418Z,7.80
2023-05-03T20:19:38.852Z,7.80
2023-05-03T20:22:06.650Z,7.80
2023-05-03T20:24:34.890Z,7.70
2023-05-03T20:27:02.900Z,7.70
2023-05-03T20:29:30.390Z,7.70
2023-05-03T20:31:58.085Z,7.70
2023-05-03T20:34:25.612Z,7.60
2023-05-03T20:36:53.122Z,7.50
2023-05-03T20:39:20.859Z,7.50
2023-05-03T20:41:48.429Z,7.40
2023-05-03T20:44:16.028Z,7.40
2023-05-03T20:46:43.541Z,7.30
2023-05-03T20:49:10.930Z,7.20
2023-05-03T20:51:38.393Z,7.20
2023-05-03T20:54:06.228Z,7.10
2023-05-03T20:56:34.116Z,7.00
2023-05-03T20:59:03.453Z,6.90
2023-05-03T21:01:31.558Z,6.90
2023-05-03T21:03:59.430Z,6.90
2023-05-03T21:06:27.422Z,6.80
2023-05-03T21:08:55.037Z,6.80
2023-05-03T21:11:22.652Z,6.70
2023-05-03T21:13:50.039Z,6.70
2023-05-03T21:16:17.521Z,6.70
2023-05-03T21:18:45.073Z,6.60
2023-05-03T21:21:12.570Z,6.60
2023-05-03T21:23:39.929Z,6.60
2023-05-03T21:26:07.333Z,6.50
2023-05-03T21:28:34.938Z,6.50
2023-05-03T21:31:02.639Z,6.40
2023-05-03T21:33:30.047Z,6.40
2023-05-03T21:35:58.605Z,6.40
2023-05-03T21:38:25.975Z,6.40
2023-05-03T21:40:53.400Z,6.30
2023-05-03T21:43:20.848Z,6.30
2023-05-03T21:45:48.960Z,6.30
2023-05-03T21:48:16.322Z,6.30
2023-05-03T21:50:44.687Z,6.30
2023-05-03T21:53:12.095Z,6.30
2023-05-03T21:55:39.571Z,6.20
2023-05-03T21:58:06.998Z,6.20
2023-05-03T22:00:36.186Z,6.20
2023-05-03T22:03:03.658Z,6.10
2023-05-03T22:05:31.191Z,6.10
2023-05-03T22:07:58.887Z,6.10
2023-05-03T22:10:26.432Z,6.00
2023-05-03T22:12:54.063Z,6.00
2023-05-03T22:15:21.665Z,6.00
2023-05-03T22:17:49.383Z,5.90
2023-05-03T22:20:17.159Z,5.80
2023-05-03T22:22:44.816Z,5.80
2023-05-03T22:25:23.340Z,5.70
2023-05-03T22:27:51.943Z,5.60
2023-05-03T22:30:20.270Z,5.60
2023-05-03T22:32:47.906Z,5.60
2023-05-03T22:35:16.188Z,5.60
2023-05-03T22:37:43.884Z,5.60
2023-05-03T22:40:12.089Z,5.50
2023-05-03T22:42:39.689Z,5.50
2023-05-03T22:45:08.676Z,5.50
2023-05-03T22:47:36.204Z,5.50
2023-05-03T22:50:04.096Z,5.40
2023-05-03T22:52:31.950Z,5.40
2023-05-03T22:55:00.501Z,5.30
2023-05-03T22:57:27.675Z,5.30
2023-05-03T22:59:55.342Z,5.20
2023-05-03T23:02:22.717Z,5.20
2023-05-03T23:04:50.097Z,5.20
2023-05-03T23:07:18.100Z,5.20
2023-05-03T23:09:48.795Z,5.10
2023-05-03T23:12:15.983Z,5.10
2023-05-03T23:14:45.835Z,5.10
2023-05-03T23:17:13.082Z,5.10
2023-05-03T23:19:40.281Z,5.00
2023-05-03T23:22:07.527Z,5.00
2023-05-03T23:24:34.951Z,5.00
2023-05-03T23:27:02.492Z,5.00
2023-05-03T23:29:29.922Z,4.90
2023-05-03T23:31:57.798Z,4.90
2023-05-03T23:34:25.565Z,4.90
2023-05-03T23:36:52.715Z,4.80
2023-05-03T23:39:19.840Z,4.80
2023-05-03T23:41:47.026Z,4.80
2023-05-03T23:44:14.149Z,4.80
2023-05-03T23:46:41.461Z,4.70
2023-05-03T23:49:08.733Z,4.70
2023-05-03T23:51:36.233Z,4.80
2023-05-03T23:54:03.351Z,4.70
2023-05-03T23:56:30.496Z,4.70
2023-05-03T23:58:57.712Z,4.60
